createdAt,value
2023-01-19T00:02:30.321Z,10.73
2023-01-19T00:09:42.176Z,8.98
2023-01-19T00:12:10.419Z,8.90
2023-01-19T00:14:38.343Z,7.38
2023-01-19T00:17:06.612Z,6.22
2023-01-19T00:19:34.319Z,8.27
2023-01-19T00:22:02.637Z,8.10
2023-01-19T00:24:57.066Z,8.02
2023-01-19T00:27:25.385Z,7.00
2023-01-19T00:29:53.367Z,7.15
2023-01-19T00:32:21.841Z,6.43
2023-01-19T00:34:55.385Z,6.43
2023-01-19T00:37:23.881Z,7.20
2023-01-19T00:39:55.277Z,8.20
2023-01-19T00:42:44.805Z,7.68
2023-01-19T00:50:03.714Z,7.90
2023-01-19T00:52:32.532Z,7.70
2023-01-19T00:55:00.260Z,7.80
2023-01-19T00:57:30.129Z,7.53
2023-01-19T00:59:57.816Z,6.80
2023-01-19T01:02:26.838Z,8.15
2023-01-19T01:04:55.454Z,7.75
2023-01-19T01:07:24.993Z,9.95
2023-01-19T01:09:52.836Z,9.05
2023-01-19T01:12:21.181Z,10.77
2023-01-19T01:14:52.406Z,13.52
2023-01-19T01:17:25.848Z,12.15
2023-01-19T01:19:53.723Z,9.32
2023-01-19T01:22:21.979Z,8.00
2023-01-19T01:24:49.758Z,7.82
2023-01-19T01:27:18.077Z,7.43
2023-01-19T01:33:53.561Z,6.40
2023-01-19T01:36:21.461Z,6.75
2023-01-19T01:38:49.747Z,7.47
2023-01-19T01:42:08.067Z,7.93
2023-01-19T01:44:50.907Z,5.65
2023-01-19T01:48:28.453Z,7.13
2023-01-19T01:55:01.288Z,7.07
2023-01-19T01:58:01.691Z,8.00
2023-01-19T02:04:32.755Z,10.65
2023-01-19T02:07:20.235Z,10.38
2023-01-19T02:13:48.216Z,7.78
2023-01-19T02:16:17.550Z,6.57
2023-01-19T02:19:59.588Z,4.53
2023-01-19T02:22:36.367Z,6.20
2023-01-19T02:25:05.770Z,8.02
2023-01-19T02:27:34.485Z,7.63
2023-01-19T02:30:04.080Z,7.78
2023-01-19T02:32:32.440Z,7.72
2023-01-19T02:35:00.630Z,7.03
2023-01-19T02:37:40.578Z,8.13
2023-01-19T02:40:14.691Z,9.38
2023-01-19T02:43:36.274Z,9.80
2023-01-19T03:04:57.532Z,5.32
2023-01-19T03:07:39.770Z,6.65
2023-01-19T03:15:49.731Z,5.80
2023-01-19T03:18:23.198Z,5.18
2023-01-19T03:20:55.511Z,6.70
2023-01-19T03:23:27.348Z,6.43
2023-01-19T03:25:57.061Z,5.97
2023-01-19T03:28:28.422Z,5.72
2023-01-19T03:31:17.101Z,7.93
2023-01-19T03:33:50.408Z,9.52
2023-01-19T03:41:09.026Z,7.90
2023-01-19T04:03:15.373Z,12.45
2023-01-19T04:05:44.896Z,8.37
2023-01-19T04:08:13.153Z,10.57
2023-01-19T04:15:12.851Z,9.02
2023-01-19T04:17:41.495Z,10.13
2023-01-19T04:20:10.368Z,8.07
2023-01-19T04:23:05.752Z,35.55
2023-01-19T04:25:33.926Z,17.25
2023-01-19T04:28:01.664Z,18.63
2023-01-19T04:30:30.055Z,17.88
2023-01-19T04:33:00.699Z,9.40
2023-01-19T04:35:29.351Z,8.80
2023-01-19T04:37:57.054Z,9.77
2023-01-19T04:40:25.413Z,11.38
2023-01-19T04:47:22.471Z,13.03
2023-01-19T04:49:50.353Z,13.80
2023-01-19T04:52:18.505Z,13.07
2023-01-19T04:54:46.564Z,15.10
2023-01-19T04:57:14.737Z,14.77
2023-01-19T04:59:42.840Z,13.43
2023-01-19T05:02:12.150Z,11.82
2023-01-19T05:04:40.130Z,14.68
2023-01-19T05:11:47.247Z,16.70
2023-01-19T05:14:15.157Z,19.33
2023-01-19T05:16:43.459Z,22.67
2023-01-19T05:19:12.419Z,22.95
2023-01-19T05:26:24.563Z,24.77
2023-01-19T05:28:52.672Z,22.57
2023-01-19T05:31:20.898Z,28.38
2023-01-19T05:33:49.440Z,27.33
2023-01-19T05:36:17.590Z,25.02
2023-01-19T05:38:46.566Z,28.17
2023-01-19T05:41:15.595Z,32.43
2023-01-19T05:43:43.486Z,30.65
2023-01-19T05:46:12.280Z,28.20
2023-01-19T05:48:40.407Z,26.10
2023-01-19T05:51:09.086Z,23.27
2023-01-19T05:53:37.120Z,24.65
2023-01-19T05:56:09.427Z,31.17
2023-01-19T05:58:40.037Z,30.35
2023-01-19T06:01:11.113Z,24.70
2023-01-19T06:03:40.380Z,18.90
2023-01-19T06:06:08.890Z,20.10
2023-01-19T06:17:59.823Z,17.15
2023-01-19T06:20:27.997Z,22.63
2023-01-19T06:27:46.477Z,22.00
2023-01-19T06:31:29.814Z,24.75
2023-01-19T06:33:57.913Z,22.73
2023-01-19T06:36:26.244Z,24.67
2023-01-19T06:38:54.343Z,16.07
2023-01-19T06:41:22.361Z,15.32
2023-01-19T06:43:50.344Z,18.38
2023-01-19T06:46:18.411Z,39.08
2023-01-19T06:48:46.307Z,33.83
2023-01-19T06:51:14.759Z,31.23
2023-01-19T06:54:11.210Z,31.63
2023-01-19T06:56:40.300Z,34.92
2023-01-19T06:59:37.717Z,43.58
2023-01-19T07:02:26.728Z,47.85
2023-01-19T07:05:02.931Z,42.77
2023-01-19T07:12:21.339Z,44.13
2023-01-19T07:14:49.969Z,41.38
2023-01-19T07:17:21.728Z,43.95
2023-01-19T07:19:49.890Z,43.77
2023-01-19T07:27:07.336Z,31.77
2023-01-19T07:34:12.634Z,26.98
2023-01-19T07:37:36.224Z,26.70
2023-01-19T07:40:04.899Z,22.20
2023-01-19T07:42:32.542Z,20.70
2023-01-19T07:45:01.405Z,23.27
2023-01-19T07:48:46.974Z,24.20
2023-01-19T07:51:18.532Z,32.80
2023-01-19T07:55:01.699Z,38.63
2023-01-19T07:57:30.414Z,36.03
2023-01-19T07:59:58.509Z,35.85
2023-01-19T08:02:27.086Z,32.47
2023-01-19T08:09:30.552Z,24.27
2023-01-19T08:16:47.383Z,18.25
2023-01-19T08:32:40.787Z,17.88
2023-01-19T08:35:41.390Z,29.13
2023-01-19T08:38:11.105Z,22.75
2023-01-19T08:41:33.461Z,18.90
2023-01-19T08:44:02.357Z,19.42
2023-01-19T08:46:31.707Z,19.08
2023-01-19T08:54:19.778Z,21.63
2023-01-19T08:57:54.233Z,19.67
2023-01-19T09:00:30.029Z,24.17
2023-01-19T09:04:49.729Z,51.72
2023-01-19T09:07:20.055Z,49.63
2023-01-19T09:14:24.647Z,40.03
2023-01-19T09:16:56.884Z,41.72
2023-01-19T09:19:26.552Z,36.22
2023-01-19T09:21:55.716Z,33.90
2023-01-19T09:24:30.053Z,35.80
2023-01-19T09:27:48.126Z,25.70
2023-01-19T09:30:22.994Z,27.40
2023-01-19T09:32:51.423Z,25.63
2023-01-19T09:40:11.978Z,29.55
2023-01-19T09:42:54.895Z,27.47
2023-01-19T09:45:43.352Z,25.75
2023-01-19T09:48:36.768Z,34.22
2023-01-19T09:51:12.891Z,43.38
2023-01-19T09:54:19.943Z,38.97
2023-01-19T09:57:00.593Z,39.53
2023-01-19T09:59:39.963Z,38.25
2023-01-19T10:02:36.234Z,34.85
2023-01-19T10:05:23.244Z,30.88
2023-01-19T10:08:10.567Z,27.73
2023-01-19T10:10:43.754Z,18.80
2023-01-19T10:13:48.784Z,18.10
2023-01-19T10:17:00.268Z,16.70
2023-01-19T10:22:57.989Z,16.20
2023-01-19T10:25:28.328Z,15.43
2023-01-19T10:28:00.404Z,13.10
2023-01-19T10:30:31.277Z,12.00
2023-01-19T10:33:00.442Z,10.85
2023-01-19T10:35:30.973Z,10.55
2023-01-19T10:38:02.706Z,10.37
2023-01-19T10:40:37.268Z,9.05
2023-01-19T10:47:45.790Z,8.20
2023-01-19T10:55:23.828Z,8.83
2023-01-19T10:59:42.425Z,8.45
2023-01-19T11:06:44.686Z,8.60
2023-01-19T11:13:22.904Z,10.93
2023-01-19T11:20:30.705Z,28.23
2023-01-19T11:23:19.185Z,15.65
2023-01-19T11:25:52.056Z,10.88
2023-01-19T11:28:45.050Z,9.47
2023-01-19T11:31:14.431Z,7.82
2023-01-19T11:33:54.972Z,7.63
2023-01-19T11:40:39.460Z,7.15
2023-01-19T11:44:28.396Z,8.50
2023-01-19T11:47:05.473Z,12.85
2023-01-19T11:49:44.583Z,11.68
2023-01-19T11:53:10.523Z,10.93
2023-01-19T11:56:23.246Z,9.98
2023-01-19T11:58:57.963Z,12.17
2023-01-19T12:01:38.271Z,11.68
2023-01-19T12:04:39.909Z,14.52
2023-01-19T12:07:22.796Z,17.85
2023-01-19T12:10:01.616Z,15.55
2023-01-19T12:15:38.291Z,9.27
2023-01-19T12:18:13.500Z,8.55
2023-01-19T12:28:31.112Z,13.00
2023-01-19T12:31:02.419Z,9.27
2023-01-19T12:33:38.311Z,9.13
2023-01-19T12:40:44.349Z,8.40
2023-01-19T12:43:16.885Z,7.10
2023-01-19T12:45:48.446Z,9.38
2023-01-19T12:48:27.746Z,9.73
2023-01-19T12:50:55.916Z,7.85
2023-01-19T12:53:26.899Z,8.02
2023-01-19T12:56:01.789Z,2.47
2023-01-19T12:58:30.889Z,2.17
2023-01-19T13:01:22.172Z,5.32
2023-01-19T13:04:34.352Z,12.70
2023-01-19T13:07:22.318Z,5.35
2023-01-19T13:09:58.211Z,4.40
2023-01-19T13:12:26.746Z,3.45
2023-01-19T13:15:28.321Z,4.38
2023-01-19T13:17:57.606Z,8.82
2023-01-19T13:20:44.880Z,4.88
2023-01-19T13:23:26.352Z,1.83
2023-01-19T13:26:07.786Z,4.60
2023-01-19T13:32:44.544Z,1.80
2023-01-19T13:35:17.955Z,4.32
2023-01-19T13:37:46.977Z,1.63
2023-01-19T13:40:23.793Z,2.80
2023-01-19T13:42:54.331Z,5.80
2023-01-19T13:45:38.018Z,3.08
2023-01-19T13:52:48.556Z,3.67
2023-01-19T13:55:21.279Z,3.70
2023-01-19T14:01:40.546Z,3.30
2023-01-19T14:04:32.242Z,2.70
2023-01-19T14:07:22.232Z,1.93
2023-01-19T14:10:06.718Z,2.35
2023-01-19T14:12:39.044Z,1.60
2023-01-19T14:15:18.615Z,2.13
2023-01-19T14:21:45.067Z,1.40
2023-01-19T14:24:18.461Z,1.13
2023-01-19T14:26:48.181Z,1.30
2023-01-19T14:29:22.215Z,1.85
2023-01-19T14:36:34.988Z,3.50
2023-01-19T14:39:04.319Z,4.50
2023-01-19T14:41:35.309Z,4.65
2023-01-19T14:48:18.839Z,2.70
2023-01-19T14:51:02.360Z,2.80
2023-01-19T14:53:37.661Z,1.65
2023-01-19T14:56:07.746Z,0.80
2023-01-19T14:58:36.252Z,1.60
2023-01-19T15:01:06.880Z,0.70
2023-01-19T15:03:44.198Z,0.80
2023-01-19T15:06:19.563Z,0.90
2023-01-19T15:08:56.182Z,0.63
2023-01-19T15:11:30.484Z,0.80
2023-01-19T15:14:51.290Z,1.75
2023-01-19T15:17:29.166Z,2.50
2023-01-19T15:19:57.397Z,1.00
2023-01-19T15:22:28.742Z,2.17
2023-01-19T15:25:00.381Z,1.00
2023-01-19T15:27:29.019Z,1.00
2023-01-19T15:29:57.057Z,0.80
2023-01-19T15:32:25.428Z,0.57
2023-01-19T15:34:54.012Z,1.00
2023-01-19T15:37:22.502Z,0.50
2023-01-19T15:44:39.486Z,0.60
2023-01-19T15:47:08.032Z,1.00
2023-01-19T15:50:28.174Z,0.80
2023-01-19T15:57:48.652Z,0.90
2023-01-19T16:00:17.582Z,0.90
2023-01-19T16:03:42.744Z,1.10
2023-01-19T16:06:16.698Z,0.98
2023-01-19T16:08:45.374Z,0.60
2023-01-19T16:11:15.983Z,0.80
2023-01-19T16:13:47.679Z,1.10
2023-01-19T16:16:18.844Z,1.40
2023-01-19T16:18:47.277Z,1.50
2023-01-19T16:21:15.914Z,1.63
2023-01-19T16:28:15.346Z,1.00
2023-01-19T16:30:43.297Z,0.65
2023-01-19T16:33:12.019Z,0.43
2023-01-19T16:35:40.037Z,0.80
2023-01-19T16:38:09.824Z,0.70
2023-01-19T16:40:38.094Z,1.00
2023-01-19T16:43:06.272Z,0.60
2023-01-19T16:55:52.896Z,0.60
2023-01-19T16:58:20.992Z,0.90
2023-01-19T17:00:52.204Z,1.17
2023-01-19T17:03:20.358Z,0.70
2023-01-19T17:05:50.502Z,1.38
2023-01-19T17:08:20.881Z,1.17
2023-01-19T17:10:49.039Z,1.07
2023-01-19T17:13:17.186Z,1.25
2023-01-19T17:15:45.520Z,1.15
2023-01-19T17:18:13.510Z,1.98
2023-01-19T17:20:41.808Z,1.50
2023-01-19T17:23:09.872Z,0.95
2023-01-19T17:25:38.190Z,0.90
2023-01-19T17:28:06.058Z,1.33
2023-01-19T17:30:34.520Z,0.95
2023-01-19T17:33:02.474Z,1.65
2023-01-19T17:35:30.820Z,1.67
2023-01-19T17:37:59.041Z,1.13
2023-01-19T17:40:27.280Z,1.50
2023-01-19T17:47:45.293Z,2.40
2023-01-19T17:50:14.220Z,34.53
2023-01-19T17:52:42.131Z,14.05
2023-01-19T17:55:11.429Z,14.32
2023-01-19T17:57:39.663Z,9.13
2023-01-19T18:00:08.834Z,6.97
2023-01-19T18:02:51.460Z,7.57
2023-01-19T18:05:20.990Z,6.85
2023-01-19T18:07:48.784Z,6.53
2023-01-19T18:10:17.431Z,5.53
2023-01-19T18:12:45.690Z,5.07
2023-01-19T18:15:16.634Z,14.40
2023-01-19T18:17:45.185Z,11.70
2023-01-19T18:24:56.174Z,9.93
2023-01-19T18:27:49.478Z,10.63
2023-01-19T18:30:18.214Z,22.70
2023-01-19T18:32:47.205Z,24.38
2023-01-19T18:35:15.295Z,20.52
2023-01-19T18:38:34.775Z,16.77
2023-01-19T18:41:07.974Z,17.40
2023-01-19T18:44:26.996Z,18.93
2023-01-19T18:46:57.050Z,20.33
2023-01-19T18:49:25.317Z,26.55
2023-01-19T18:51:53.124Z,24.08
2023-01-19T18:54:21.470Z,58.00
2023-01-19T18:57:39.156Z,47.13
2023-01-19T19:00:07.892Z,16.20
2023-01-19T19:03:50.671Z,6.72
2023-01-19T19:06:21.708Z,2.10
2023-01-19T19:08:51.982Z,1.92
2023-01-19T19:11:24.912Z,1.50
2023-01-19T19:13:58.713Z,0.80
2023-01-19T19:17:16.666Z,1.70
2023-01-19T19:20:24.002Z,1.63
2023-01-19T19:22:52.141Z,1.20
2023-01-19T19:25:20.438Z,1.43
2023-01-19T19:27:52.470Z,9.82
2023-01-19T19:30:21.723Z,12.35
2023-01-19T19:32:54.203Z,14.98
2023-01-19T19:35:31.492Z,12.02
2023-01-19T19:38:00.418Z,4.60
2023-01-19T19:40:29.026Z,4.30
2023-01-19T19:43:00.579Z,4.88
2023-01-19T19:45:31.598Z,5.03
2023-01-19T19:47:59.450Z,5.20
2023-01-19T19:50:27.583Z,8.53
2023-01-19T19:52:59.209Z,10.57
2023-01-19T19:55:28.339Z,8.30
2023-01-19T19:57:56.255Z,7.70
2023-01-19T20:00:24.735Z,3.97
2023-01-19T20:02:52.553Z,2.50
2023-01-19T20:05:21.067Z,2.40
2023-01-19T20:07:49.552Z,2.95
2023-01-19T20:10:18.031Z,3.78
2023-01-19T20:12:45.874Z,3.83
2023-01-19T20:15:14.465Z,1.90
2023-01-19T20:17:42.176Z,1.27
2023-01-19T20:20:11.466Z,0.90
2023-01-19T20:22:39.630Z,0.80
2023-01-19T20:25:08.553Z,0.60
2023-01-19T20:27:38.867Z,1.10
2023-01-19T20:30:07.955Z,1.00
2023-01-19T20:32:35.649Z,1.00
2023-01-19T20:35:04.881Z,1.08
2023-01-19T20:37:32.854Z,1.20
2023-01-19T20:40:00.992Z,2.57
2023-01-19T20:42:28.927Z,3.78
2023-01-19T20:44:57.236Z,5.07
2023-01-19T20:47:26.329Z,11.52
2023-01-19T20:49:54.624Z,8.10
2023-01-19T20:52:28.241Z,7.50
2023-01-19T20:54:56.475Z,7.15
2023-01-19T20:57:24.605Z,7.78
2023-01-19T20:59:52.978Z,8.10
2023-01-19T21:02:23.075Z,7.50
2023-01-19T21:04:53.654Z,7.33
2023-01-19T21:07:21.610Z,6.30
2023-01-19T21:09:49.787Z,6.35
2023-01-19T21:12:17.864Z,5.50
2023-01-19T21:14:46.304Z,6.40
2023-01-19T21:17:16.237Z,5.53
2023-01-19T21:19:49.260Z,4.90
2023-01-19T21:31:16.552Z,14.35
2023-01-19T21:34:59.994Z,13.93
2023-01-19T21:42:44.234Z,9.27
2023-01-19T21:45:13.164Z,18.60
2023-01-19T21:48:59.960Z,8.40
2023-01-19T21:51:30.149Z,6.80
2023-01-19T21:53:59.965Z,6.90
2023-01-19T22:01:38.306Z,4.95
2023-01-19T22:04:06.740Z,3.90
2023-01-19T22:11:23.982Z,4.07
2023-01-19T22:13:52.615Z,4.55
2023-01-19T22:16:22.856Z,5.20
2023-01-19T22:22:41.417Z,5.97
2023-01-19T22:25:10.254Z,5.30
2023-01-19T22:27:39.067Z,4.70
2023-01-19T22:30:10.174Z,6.00
2023-01-19T22:32:38.716Z,4.50
2023-01-19T22:35:06.883Z,4.25
2023-01-19T22:37:38.051Z,4.95
2023-01-19T22:40:06.715Z,6.25
2023-01-19T22:42:34.360Z,8.35
2023-01-19T22:45:02.540Z,6.75
2023-01-19T22:47:30.223Z,7.47
2023-01-19T22:49:58.375Z,7.82
2023-01-19T22:52:26.106Z,7.75
2023-01-19T22:54:57.370Z,8.02
2023-01-19T22:57:25.268Z,9.52
2023-01-19T22:59:53.379Z,12.43
2023-01-19T23:02:21.423Z,11.15
2023-01-19T23:09:23.406Z,8.57
2023-01-19T23:11:51.773Z,10.77
2023-01-19T23:14:22.110Z,10.13
2023-01-19T23:21:40.418Z,11.32
2023-01-19T23:24:08.816Z,9.15
2023-01-19T23:26:38.556Z,9.40
2023-01-19T23:29:13.111Z,9.27
2023-01-19T23:32:34.574Z,8.77
2023-01-19T23:35:02.856Z,9.52
2023-01-19T23:37:34.629Z,6.15
2023-01-19T23:40:02.866Z,7.03
2023-01-19T23:43:27.205Z,7.03
2023-01-19T23:45:55.565Z,8.25
2023-01-19T23:48:23.404Z,7.43
2023-01-19T23:51:47.270Z,8.43
2023-01-19T23:54:40.094Z,7.00
2023-01-19T23:57:08.385Z,6.78
2023-01-19T23:59:36.191Z,6.22
